Time;durP1;ratioP1;P1;durP2;ratioP2;P2;SDS_P1;SDS_P2;PMS_P1;PMS_P2;Temp;Humidity;BMP_temperature;BMP_pressure;BME280_temperature;BME280_humidity;BME280_pressure;Samples;Min_cycle;Max_cycle;Signal;HPM_P1;HPM_P2
2021/05/01 00:01:40;;;;;;;16.65;9.83;;;;;;;14.34;61.00;100559.63;1784013;79;21006;-74
2021/05/01 00:04:08;;;;;;;17.55;10.53;;;;;;;14.31;60.83;100563.35;1784087;79;20978;-74
2021/05/01 00:06:36;;;;;;;16.82;10.05;;;;;;;14.29;60.93;100565.27;1784162;80;21373;-75
2021/05/01 00:09:06;;;;;;;11.10;9.23;;;;;;;14.26;60.06;100563.70;1783955;79;21380;-74
2021/05/01 00:11:34;;;;;;;15.00;9.65;;;;;;;14.23;59.86;100573.67;1775379;80;20939;-73
2021/05/01 00:14:02;;;;;;;14.40;10.60;;;;;;;14.20;60.20;100576.03;1770390;81;20963;-76
2021/05/01 00:16:30;;;;;;;15.88;11.03;;;;;;;14.18;60.45;100581.91;1770683;79;21069;-74
2021/05/01 00:18:59;;;;;;;18.17;10.18;;;;;;;14.15;61.16;100579.51;1770507;79;21376;-75
2021/05/01 00:21:27;;;;;;;17.57;11.28;;;;;;;14.13;60.46;100568.72;1770441;80;21392;-74
2021/05/01 00:23:57;;;;;;;13.58;10.55;;;;;;;14.10;60.51;100570.62;1770004;81;20998;-74
2021/05/01 00:26:25;;;;;;;22.50;10.78;;;;;;;14.07;59.95;100571.33;1770004;81;20943;-74
2021/05/01 00:28:53;;;;;;;15.45;11.18;;;;;;;14.04;60.02;100580.31;1770046;80;21325;-75
2021/05/01 00:31:22;;;;;;;14.53;10.58;;;;;;;14.02;60.49;100575.63;1770056;81;21108;-74
2021/05/01 00:33:50;;;;;;;13.58;8.65;;;;;;;14.01;60.70;100576.60;1769970;80;21054;-74
2021/05/01 00:36:18;;;;;;;11.50;8.95;;;;;;;13.99;60.68;100576.36;1770046;81;20959;-74
2021/05/01 00:38:48;;;;;;;12.37;8.55;;;;;;;13.96;60.71;100580.52;1769962;81;21436;-74
2021/05/01 00:41:16;;;;;;;16.02;8.83;;;;;;;13.92;60.77;100585.20;1770027;79;20935;-75
2021/05/01 00:43:44;;;;;;;14.98;9.30;;;;;;;13.88;60.92;100600.88;1770059;81;21252;-73
2021/05/01 00:46:13;;;;;;;13.28;9.03;;;;;;;13.85;61.02;100607.23;1749855;81;21507;-73
2021/05/01 00:48:41;;;;;;;13.68;8.03;;;;;;;13.83;61.22;100603.86;1770056;81;21353;-72
2021/05/01 00:51:09;;;;;;;15.20;8.35;;;;;;;13.83;61.05;100608.30;1769958;81;20992;-74
2021/05/01 00:53:38;;;;;;;15.88;8.90;;;;;;;13.81;61.11;100612.36;1770078;81;21536;-74
2021/05/01 00:56:07;;;;;;;12.68;8.35;;;;;;;13.86;60.98;100613.33;1770072;81;21363;-74
2021/05/01 00:58:36;;;;;;;14.83;9.38;;;;;;;13.86;60.98;100613.33;1770054;79;21369;-73
2021/05/01 01:03:36;;;;;;;17.00;9.38;;;;;;;13.91;61.00;100604.59;1770005;81;20959;-73
2021/05/01 01:06:05;;;;;;;17.98;9.40;;;;;;;13.92;61.10;100606.30;1769925;79;20935;-74
2021/05/01 01:08:34;;;;;;;13.98;9.70;;;;;;;13.91;61.06;100603.28;1769985;80;22084;-73
2021/05/01 01:11:03;;;;;;;15.75;9.90;;;;;;;13.89;61.04;100607.37;1772128;79;20958;-73
2021/05/01 01:13:31;;;;;;;18.75;10.38;;;;;;;13.88;61.26;100604.84;1778379;79;20923;-74
2021/05/01 01:16:00;;;;;;;14.68;10.38;;;;;;;13.85;61.63;100608.55;1778559;80;20951;-73
2021/05/01 01:18:28;;;;;;;18.80;9.40;;;;;;;13.84;62.15;100609.97;1778494;80;20990;-76
2021/05/01 01:21:01;;;;;;;19.60;9.73;;;;;;;13.81;62.37;100613.67;1778447;80;21464;-76
2021/05/01 01:23:29;;;;;;;17.00;10.48;;;;;;;13.79;62.65;100608.99;1778432;80;21029;-74
2021/05/01 01:25:58;;;;;;;15.48;9.58;;;;;;;13.79;63.25;100614.27;1778477;80;21033;-74
2021/05/01 01:28:27;;;;;;;13.55;10.63;;;;;;;13.78;63.61;100613.05;1778432;80;21045;-73
2021/05/01 01:30:55;;;;;;;16.67;11.73;;;;;;;13.78;64.15;100613.05;1778458;79;20957;-72
2021/05/01 01:33:23;;;;;;;15.35;10.93;;;;;;;13.78;64.69;100610.41;1778451;80;21376;-74
2021/05/01 01:35:52;;;;;;;18.60;13.18;;;;;;;13.78;64.73;100599.87;1778414;80;21448;-72
2021/05/01 01:38:20;;;;;;;16.48;11.28;;;;;;;13.75;64.85;100594.35;1778545;80;21480;-74
2021/05/01 01:40:48;;;;;;;18.12;11.50;;;;;;;13.72;65.37;100605.59;1778371;80;21029;-75
2021/05/01 01:43:16;;;;;;;14.78;11.78;;;;;;;13.67;65.87;100617.33;1778474;79;21001;-74
2021/05/01 01:45:44;;;;;;;16.12;10.50;;;;;;;13.62;66.68;100612.85;1778441;80;21358;-75
2021/05/01 01:48:12;;;;;;;14.63;11.10;;;;;;;13.60;67.26;100609.97;1778355;79;20907;-74
2021/05/01 01:50:41;;;;;;;19.62;11.48;;;;;;;13.59;67.84;100605.19;1778404;80;20962;-73
2021/05/01 01:53:09;;;;;;;17.48;11.95;;;;;;;13.61;68.25;100597.17;1778404;79;21018;-73
2021/05/01 01:55:37;;;;;;;13.53;11.20;;;;;;;13.62;68.35;100612.02;1778413;80;20986;-72
2021/05/01 01:58:05;;;;;;;18.40;12.90;;;;;;;13.61;68.42;100627.48;1778437;80;21863;-73
2021/05/01 02:00:35;;;;;;;15.08;13.45;;;;;;;13.61;69.13;100630.11;1778379;80;21448;-74
2021/05/01 02:03:04;;;;;;;20.77;12.03;;;;;;;13.58;69.46;100614.50;1778370;80;20950;-74
2021/05/01 02:05:33;;;;;;;21.93;12.70;;;;;;;13.54;69.64;100618.31;1778389;80;20931;-75
2021/05/01 02:08:02;;;;;;;17.55;12.13;;;;;;;13.42;69.89;100602.92;1778456;80;20950;-75
2021/05/01 02:10:31;;;;;;;20.75;12.82;;;;;;;13.34;70.26;100593.41;1778414;80;21415;-75
2021/05/01 02:12:59;;;;;;;14.23;11.50;;;;;;;13.24;70.68;100586.63;1778322;80;20967;-75
2021/05/01 02:15:27;;;;;;;16.65;14.78;;;;;;;13.19;71.12;100604.55;1778328;79;20962;-74
2021/05/01 02:17:56;;;;;;;20.20;16.12;;;;;;;13.20;71.44;100616.75;1778484;80;21451;-73
2021/05/01 02:20:32;;;;;;;19.57;16.45;;;;;;;13.20;71.60;100605.73;1778523;80;20967;-74
2021/05/01 02:23:01;;;;;;;18.07;13.40;;;;;;;13.23;71.65;100596.32;1778431;80;21402;-74
2021/05/01 02:25:30;;;;;;;18.35;14.98;;;;;;;13.24;71.70;100600.63;1778410;80;20998;-74
2021/05/01 02:27:58;;;;;;;16.80;13.53;;;;;;;13.23;71.70;100602.07;1778492;80;21456;-74
2021/05/01 02:30:27;;;;;;;14.18;11.83;;;;;;;13.20;71.61;100608.38;1778406;80;20926;-73
2021/05/01 02:32:57;;;;;;;12.95;10.48;;;;;;;13.15;71.72;100602.60;1778436;80;20883;-74
2021/05/01 02:35:31;;;;;;;13.20;11.00;;;;;;;13.11;71.61;100608.20;1778365;80;21184;-73
2021/05/01 02:37:59;;;;;;;;;;;;;;;13.06;71.69;100616.42;1781095;80;21345;-73
2021/05/01 02:40:31;;;;;;;12.15;9.70;;;;;;;13.02;71.66;100618.90;1778437;80;20446;-73
2021/05/01 02:43:09;;;;;;;14.85;10.60;;;;;;;12.97;71.77;100624.97;1778291;79;20998;-72
2021/05/01 02:45:37;;;;;;;16.55;12.70;;;;;;;12.95;71.77;100636.08;1778544;80;21444;-73
2021/05/01 02:48:08;;;;;;;18.15;12.55;;;;;;;12.92;71.53;100641.09;1778238;79;21257;-75
2021/05/01 02:50:37;;;;;;;16.80;11.73;;;;;;;12.88;71.39;100638.78;1778321;80;21049;-74
2021/05/01 02:53:06;;;;;;;17.10;11.80;;;;;;;12.85;71.21;100647.73;1778384;80;20943;-74
2021/05/01 02:55:35;;;;;;;14.85;11.63;;;;;;;12.79;71.12;100652.92;1778367;80;20937;-74
2021/05/01 02:58:03;;;;;;;13.98;11.70;;;;;;;12.75;71.23;100662.45;1778371;79;21368;-74
2021/05/01 03:00:32;;;;;;;18.20;12.20;;;;;;;12.71;71.32;100657.03;1778505;79;22131;-73
2021/05/01 03:03:00;;;;;;;15.65;11.03;;;;;;;12.68;71.38;100669.09;1778431;79;21128;-72
2021/05/01 03:05:28;;;;;;;13.72;10.28;;;;;;;12.68;71.48;100676.98;1778371;80;21010;-73
2021/05/01 03:07:57;;;;;;;13.35;10.75;;;;;;;12.68;71.50;100676.50;1778294;80;21034;-73
2021/05/01 03:10:26;;;;;;;16.02;11.95;;;;;;;12.71;71.70;100680.23;1778314;80;21033;-74
2021/05/01 03:12:55;;;;;;;32.38;23.30;;;;;;;12.75;71.63;100675.61;1778407;80;22301;-74
2021/05/01 03:15:24;;;;;;;17.23;11.73;;;;;;;12.76;71.28;100674.20;1778300;79;21508;-76
2021/05/01 03:17:52;;;;;;;19.87;11.60;;;;;;;12.71;71.10;100670.19;1778426;80;21468;-74
2021/05/01 03:20:21;;;;;;;14.95;10.55;;;;;;;12.66;71.02;100671.81;1778369;80;20943;-74
2021/05/01 03:22:49;;;;;;;12.88;8.13;;;;;;;12.64;71.14;100673.23;1778438;80;21010;-73
2021/05/01 03:25:18;;;;;;;12.23;7.95;;;;;;;12.64;71.15;100680.28;1778455;80;22735;-75
2021/05/01 03:27:46;;;;;;;14.10;8.70;;;;;;;12.66;71.28;100678.39;1778293;80;20950;-73
2021/05/01 03:30:18;;;;;;;11.55;7.50;;;;;;;12.70;71.19;100682.51;1778349;80;20942;-74
2021/05/01 03:32:46;;;;;;;11.88;8.60;;;;;;;12.74;71.35;100690.56;1778398;80;21169;-72
2021/05/01 03:35:15;;;;;;;14.25;8.93;;;;;;;12.78;71.43;100688.09;1778304;79;20934;-74
2021/05/01 03:37:43;;;;;;;12.53;9.15;;;;;;;12.85;71.57;100691.98;1778349;80;21181;-74
2021/05/01 03:40:13;;;;;;;12.35;8.55;;;;;;;12.91;71.16;100696.45;1778255;80;20950;-74
2021/05/01 03:42:42;;;;;;;12.15;8.48;;;;;;;12.98;70.63;100701.66;1778227;80;20938;-73
2021/05/01 03:45:12;;;;;;;10.78;9.68;;;;;;;13.03;70.63;100692.52;1778370;80;21384;-73
2021/05/01 03:47:40;;;;;;;10.50;7.85;;;;;;;13.10;70.69;100685.52;1778495;80;21400;-75
2021/05/01 03:50:08;;;;;;;12.00;8.18;;;;;;;13.19;70.24;100690.97;1778386;79;21359;-75
2021/05/01 03:52:37;;;;;;;11.85;8.60;;;;;;;13.27;70.07;100700.50;1778228;80;21637;-74
2021/05/01 03:55:07;;;;;;;14.07;9.35;;;;;;;13.38;69.88;100700.23;1778361;80;20949;-74
2021/05/01 03:57:36;;;;;;;9.53;8.50;;;;;;;13.50;69.62;100714.36;1775427;80;21034;-74
2021/05/01 04:00:06;;;;;;;13.35;9.63;;;;;;;13.61;69.50;100718.39;1778500;80;20946;-74
2021/05/01 04:02:35;;;;;;;11.30;7.10;;;;;;;13.75;69.22;100714.76;1778468;80;21424;-73
2021/05/01 04:05:04;;;;;;;8.98;6.97;;;;;;;13.95;68.73;100715.95;1778564;80;20954;-75
2021/05/01 04:07:33;;;;;;;10.75;7.78;;;;;;;14.22;68.03;100702.53;1778520;80;20931;-76
2021/05/01 04:10:01;;;;;;;12.75;9.33;;;;;;;14.55;67.19;100708.44;1778519;80;21002;-75
2021/05/01 04:12:29;;;;;;;12.85;7.97;;;;;;;14.92;66.12;100705.66;1778581;80;21510;-76
2021/05/01 04:14:57;;;;;;;10.45;7.85;;;;;;;15.24;64.78;100708.91;1778614;79;21200;-74
2021/05/01 04:17:26;;;;;;;10.25;8.00;;;;;;;15.50;63.99;100709.52;1778538;80;20895;-74
2021/05/01 04:19:54;;;;;;;9.00;7.37;;;;;;;15.77;63.29;100709.62;1778581;80;20931;-74
2021/05/01 04:22:24;;;;;;;11.35;8.63;;;;;;;16.01;62.62;100720.00;1778422;79;20942;-75
2021/05/01 04:24:52;;;;;;;11.20;8.33;;;;;;;16.24;61.57;100723.42;1778451;79;21338;-71
2021/05/01 04:27:21;;;;;;;12.68;8.33;;;;;;;16.55;61.04;100723.05;1778458;80;21362;-73
2021/05/01 04:29:49;;;;;;;12.43;8.40;;;;;;;16.83;60.20;100718.09;1778438;79;20954;-75
2021/05/01 04:32:18;;;;;;;10.38;8.35;;;;;;;17.02;59.48;100720.86;1778560;80;21050;-74
2021/05/01 04:34:47;;;;;;;12.30;9.60;;;;;;;17.14;59.14;100718.96;1778486;80;21002;-74
2021/05/01 04:37:15;;;;;;;12.25;8.98;;;;;;;17.26;58.71;100713.11;1778471;79;21289;-74
2021/05/01 04:39:43;;;;;;;16.73;12.58;;;;;;;17.38;58.60;100712.86;1778470;79;21183;-73
2021/05/01 04:42:13;;;;;;;14.23;10.75;;;;;;;17.54;58.10;100711.52;1778348;79;21368;-72
2021/05/01 04:44:42;;;;;;;18.67;14.10;;;;;;;17.78;57.85;100711.16;1778458;80;20891;-72
2021/05/01 04:47:10;;;;;;;13.90;12.33;;;;;;;18.10;57.26;100708.32;1778440;80;20946;-72
2021/05/01 04:49:41;;;;;;;14.87;11.90;;;;;;;18.51;55.94;100707.67;1778494;79;21033;-71
2021/05/01 04:52:10;;;;;;;16.25;10.63;;;;;;;18.91;55.14;100715.95;1778418;80;21421;-72
2021/05/01 04:54:38;;;;;;;13.48;10.28;;;;;;;19.26;54.24;100711.30;1778377;80;21049;-70
2021/05/01 04:57:07;;;;;;;15.20;11.30;;;;;;;19.60;53.33;100709.38;1778472;80;21061;-73
2021/05/01 04:59:36;;;;;;;14.58;10.18;;;;;;;19.96;52.18;100716.61;1778417;80;21091;-73
2021/05/01 05:02:04;;;;;;;13.50;9.88;;;;;;;20.25;51.54;100710.59;1778503;80;20934;-72
2021/05/01 05:04:33;;;;;;;12.68;10.15;;;;;;;20.62;50.51;100703.41;1778371;79;22340;-73
2021/05/01 05:07:01;;;;;;;14.58;9.90;;;;;;;20.95;50.34;100708.97;1778401;80;21034;-72
2021/05/01 05:09:29;;;;;;;10.23;9.23;;;;;;;21.26;49.55;100712.80;1778437;80;21002;-72
2021/05/01 05:11:58;;;;;;;13.60;9.50;;;;;;;21.55;48.28;100719.63;1776875;80;21443;-72
2021/05/01 05:14:26;;;;;;;11.18;8.80;;;;;;;21.79;48.02;100711.34;1770008;79;20935;-73
2021/05/01 05:16:55;;;;;;;10.15;9.18;;;;;;;21.99;46.85;100722.09;1769954;81;21298;-73
2021/05/01 05:19:23;;;;;;;12.15;9.40;;;;;;;22.18;46.82;100722.27;1769861;81;21018;-73
2021/05/01 05:21:52;;;;;;;12.50;9.08;;;;;;;22.36;46.52;100716.80;1769949;79;20939;-73
2021/05/01 05:24:21;;;;;;;9.80;8.08;;;;;;;22.60;46.32;100718.64;1769944;81;20954;-72
2021/05/01 05:26:49;;;;;;;11.38;8.40;;;;;;;22.88;45.93;100718.29;1770068;79;21425;-74
2021/05/01 05:29:17;;;;;;;14.20;9.40;;;;;;;23.12;44.87;100708.90;1769945;79;22300;-74
2021/05/01 05:31:45;;;;;;;13.98;8.55;;;;;;;23.40;44.68;100719.66;1769994;81;20947;-73
2021/05/01 05:34:13;;;;;;;12.03;8.65;;;;;;;23.63;43.92;100719.72;1770020;80;20943;-73
2021/05/01 05:36:42;;;;;;;13.45;10.58;;;;;;;23.79;43.79;100726.38;1770020;79;20951;-73
2021/05/01 05:39:10;;;;;;;10.75;9.48;;;;;;;24.00;43.90;100722.55;1770001;81;21010;-74
2021/05/01 05:41:38;;;;;;;12.05;9.03;;;;;;;24.26;42.97;100729.42;1769946;81;21372;-72
2021/05/01 05:44:07;;;;;;;14.03;9.60;;;;;;;24.59;43.06;100726.51;1769883;81;21634;-72
2021/05/01 05:46:35;;;;;;;15.23;12.40;;;;;;;24.99;43.12;100723.07;1769912;80;20927;-73
2021/05/01 05:49:04;;;;;;;15.95;13.38;;;;;;;25.33;40.98;100727.11;1769972;80;20939;-74
2021/05/01 05:51:33;;;;;;;20.60;14.55;;;;;;;25.47;40.88;100729.45;1769975;79;20912;-74
2021/05/01 05:54:01;;;;;;;16.10;14.40;;;;;;;25.67;41.12;100727.83;1725090;81;21480;-75
2021/05/01 05:56:34;;;;;;;19.15;16.37;;;;;;;25.92;40.40;100721.63;1769970;81;20970;-74
2021/05/01 05:59:02;;;;;;;22.13;16.25;;;;;;;26.03;39.34;100733.25;1770043;79;20935;-74
2021/05/01 06:01:31;;;;;;;19.00;16.73;;;;;;;26.17;39.91;100728.01;1769980;81;21439;-74
2021/05/01 06:04:00;;;;;;;22.85;17.95;;;;;;;26.37;39.11;100730.85;1769954;81;20994;-73
2021/05/01 06:06:33;;;;;;;18.92;17.02;;;;;;;26.49;38.47;100727.97;1769869;81;21808;-74
2021/05/01 06:09:02;;;;;;;21.87;17.07;;;;;;;26.61;38.99;100723.78;1769978;81;20966;-75
2021/05/01 06:11:30;;;;;;;24.55;18.27;;;;;;;26.70;38.27;100716.36;1769878;79;20986;-74
2021/05/01 06:14:02;;;;;;;20.90;17.17;;;;;;;26.75;38.58;100719.32;1777038;80;20982;-74
2021/05/01 06:16:31;;;;;;;19.77;17.42;;;;;;;27.00;38.88;100719.69;1778700;79;21006;-73
2021/05/01 06:19:01;;;;;;;22.07;17.57;;;;;;;27.31;38.06;100727.05;1778422;80;21370;-72
2021/05/01 06:21:30;;;;;;;21.70;15.98;;;;;;;27.45;37.48;100736.31;1778364;80;21093;-74
2021/05/01 06:23:58;;;;;;;18.85;16.42;;;;;;;27.65;37.56;100731.53;1778312;80;20994;-72
2021/05/01 06:26:27;;;;;;;19.23;17.20;;;;;;;27.81;36.86;100739.77;1778311;80;20951;-73
2021/05/01 06:28:54;;;;;;;20.25;16.27;;;;;;;28.02;36.73;100735.61;1778333;80;20911;-75
2021/05/01 06:31:24;;;;;;;18.02;16.12;;;;;;;28.21;36.62;100741.23;1752846;80;21789;-74
2021/05/01 06:33:52;;;;;;;21.93;19.23;;;;;;;28.38;36.85;100745.20;1778300;80;20903;-74
2021/05/01 06:36:24;;;;;;;25.43;19.48;;;;;;;28.55;35.64;100734.88;1778346;80;20931;-75
2021/05/01 06:38:57;;;;;;;23.42;20.60;;;;;;;28.70;35.10;100740.04;1778354;80;20997;-74
2021/05/01 06:41:22;;;;;;;26.80;18.27;;;;;;;28.86;35.44;100742.33;1778043;80;20951;-74
2021/05/01 06:44:07;;;;;;;19.37;17.17;;;;;;;28.99;34.98;100746.86;1778337;80;21780;-75
2021/05/01 06:46:36;;;;;;;21.42;17.32;;;;;;;29.08;34.64;100743.41;1778451;79;20950;-74
2021/05/01 06:49:15;;;;;;;25.72;16.97;;;;;;;29.06;34.46;100746.84;1778373;80;20890;-75
2021/05/01 06:51:44;;;;;;;20.75;17.37;;;;;;;29.16;34.80;100739.17;1778271;79;20993;-71
2021/05/01 06:54:12;;;;;;;20.62;18.42;;;;;;;29.35;34.65;100745.58;1752993;80;20927;-76
2021/05/01 06:56:41;;;;;;;22.37;19.73;;;;;;;29.42;33.97;100744.20;1778388;80;23069;-76
2021/05/01 06:59:10;;;;;;;19.73;17.48;;;;;;;29.51;33.97;100742.91;1752607;80;21685;-75
2021/05/01 07:01:39;;;;;;;21.48;18.75;;;;;;;29.66;33.81;100739.92;1778345;80;21057;-76
2021/05/01 07:04:08;;;;;;;19.40;16.45;;;;;;;29.80;33.84;100740.73;1778409;80;20997;-74
2021/05/01 07:06:37;;;;;;;17.00;15.35;;;;;;;29.98;34.02;100739.48;1778479;79;21472;-76
2021/05/01 07:09:06;;;;;;;19.02;16.73;;;;;;;30.16;33.95;100743.62;1752838;80;21519;-76
2021/05/01 07:11:34;;;;;;;18.85;16.40;;;;;;;30.28;33.58;100741.59;1778195;79;20939;-75
2021/05/01 07:14:03;;;;;;;22.05;15.78;;;;;;;30.41;32.52;100742.02;1778302;80;20958;-75
2021/05/01 07:16:33;;;;;;;19.80;16.23;;;;;;;30.39;32.94;100746.30;1778402;80;20950;-78
2021/05/01 07:19:03;;;;;;;22.85;17.95;;;;;;;30.39;33.79;100748.18;1778430;79;20899;-73
2021/05/01 07:21:31;;;;;;;22.67;17.10;;;;;;;30.44;33.35;100747.84;1778345;80;21440;-74
2021/05/01 07:24:00;;;;;;;18.75;16.52;;;;;;;30.57;33.51;100752.29;1778228;80;21026;-76
2021/05/01 07:26:29;;;;;;;18.80;14.47;;;;;;;30.76;32.11;100748.59;1778320;79;21025;-75
2021/05/01 07:28:58;;;;;;;19.45;14.33;;;;;;;30.98;32.50;100751.74;1778489;80;21026;-80
2021/05/01 07:31:30;;;;;;;20.80;13.03;;;;;;;31.24;32.46;100750.32;1778446;79;20891;-81
2021/05/01 07:33:58;;;;;;;15.55;10.75;;;;;;;31.32;32.52;100749.50;1779147;80;21436;-79
2021/05/01 07:36:44;;;;;;;13.83;9.83;;;;;;;31.38;31.81;100749.13;1753017;80;20962;-78
2021/05/01 07:39:13;;;;;;;19.70;14.10;;;;;;;31.38;32.24;100745.89;1778703;79;20958;-78
2021/05/01 07:41:44;;;;;;;17.98;12.28;;;;;;;31.35;31.76;100749.59;1778489;79;20939;-77
2021/05/01 07:44:12;;;;;;;19.75;14.28;;;;;;;31.41;31.91;100751.38;1778483;79;21365;-77
2021/05/01 07:46:42;;;;;;;16.85;12.37;;;;;;;31.48;31.17;100752.18;1778626;79;21364;-73
2021/05/01 07:49:11;;;;;;;15.32;10.90;;;;;;;31.53;31.23;100754.20;1728353;80;21436;-77
2021/05/01 07:51:40;;;;;;;10.90;8.35;;;;;;;31.68;31.24;100759.21;1779222;80;20990;-73
2021/05/01 07:54:10;;;;;;;8.13;7.10;;;;;;;31.66;29.96;100756.75;1780560;79;21416;-74
2021/05/01 07:56:40;;;;;;;14.58;6.53;;;;;;;31.58;30.66;100763.83;1780584;80;20997;-75
2021/05/01 07:59:10;;;;;;;10.43;8.50;;;;;;;31.67;31.39;100766.52;1780350;80;21190;-75
2021/05/01 08:01:38;;;;;;;11.85;8.93;;;;;;;31.78;31.24;100764.39;1781295;80;21080;-76
2021/05/01 08:04:09;;;;;;;14.68;10.90;;;;;;;31.80;31.26;100769.06;1781139;80;20982;-76
2021/05/01 08:06:38;;;;;;;10.40;9.38;;;;;;;31.87;30.29;100768.98;1753990;80;20998;-74
2021/05/01 08:09:07;;;;;;;20.10;10.72;;;;;;;31.86;30.14;100765.13;1778728;79;20910;-76
2021/05/01 08:11:36;;;;;;;13.72;10.38;;;;;;;31.94;30.19;100766.17;1778608;80;21583;-75
2021/05/01 08:14:06;;;;;;;16.50;8.75;;;;;;;31.94;30.37;100757.50;1772644;80;21097;-74
2021/05/01 08:16:35;;;;;;;14.25;7.62;;;;;;;31.93;30.28;100758.56;1770083;79;21476;-76
2021/05/01 08:19:04;;;;;;;13.18;8.93;;;;;;;31.95;29.70;100757.81;1770166;81;20935;-72
2021/05/01 08:21:35;;;;;;;13.00;8.00;;;;;;;31.96;30.19;100755.38;1770083;81;21342;-70
2021/05/01 08:24:04;;;;;;;12.07;7.75;;;;;;;31.89;29.76;100751.12;1770106;81;21317;-75
2021/05/01 08:26:32;;;;;;;9.60;7.60;;;;;;;31.84;29.64;100759.09;1770196;81;20907;-71
2021/05/01 08:29:01;;;;;;;9.83;8.83;;;;;;;31.93;30.26;100757.21;1770501;79;21583;-70
2021/05/01 08:31:29;;;;;;;9.70;8.00;;;;;;;32.06;29.85;100752.67;1770385;81;21416;-71
2021/05/01 08:34:01;;;;;;;10.78;7.83;;;;;;;32.18;29.65;100753.55;1769990;81;21007;-73
2021/05/01 08:36:30;;;;;;;13.25;7.92;;;;;;;32.28;28.64;100755.14;1770091;81;21375;-70
2021/05/01 08:38:59;;;;;;;15.03;10.60;;;;;;;32.22;28.58;100760.17;1769963;79;20958;-71
2021/05/01 08:41:27;;;;;;;11.65;8.30;;;;;;;32.07;28.97;100759.23;1769468;81;21048;-68
2021/05/01 08:44:08;;;;;;;12.58;8.48;;;;;;;31.92;29.41;100762.86;1769858;81;21349;-69
2021/05/01 08:46:37;;;;;;;11.00;6.62;;;;;;;31.85;29.23;100752.64;1770027;81;20935;-68
2021/05/01 08:49:08;;;;;;;9.68;5.65;;;;;;;31.95;29.76;100766.45;1769945;79;21364;-68
2021/05/01 08:51:40;;;;;;;8.83;5.00;;;;;;;32.06;29.38;100762.16;1769973;81;20972;-70
2021/05/01 08:54:08;;;;;;;7.15;4.12;;;;;;;32.13;29.23;100767.81;1770003;81;20955;-70
2021/05/01 08:56:36;;;;;;;8.58;5.58;;;;;;;32.10;29.17;100766.89;1769900;81;20947;-69
2021/05/01 08:59:05;;;;;;;17.30;10.40;;;;;;;32.13;29.67;100766.98;1770020;79;20952;-69
2021/05/01 09:01:37;;;;;;;15.38;8.53;;;;;;;32.25;29.18;100769.73;1769973;81;22341;-69
2021/05/01 09:04:09;;;;;;;11.97;6.75;;;;;;;32.41;29.36;100767.69;1769909;79;21160;-70
2021/05/01 09:06:37;;;;;;;6.78;5.62;;;;;;;32.35;29.18;100769.47;1770101;81;21580;-69
2021/05/01 09:09:08;;;;;;;4.35;3.22;;;;;;;32.40;29.34;100770.94;1769889;80;20954;-69
2021/05/01 09:11:45;;;;;;;5.20;3.80;;;;;;;32.42;29.01;100772.07;1770251;79;20958;-70
2021/05/01 09:14:26;;;;;;;4.72;3.10;;;;;;;32.43;29.33;100767.75;1769925;80;21183;-70
2021/05/01 09:17:06;;;;;;;4.55;2.60;;;;;;;32.45;28.70;100770.77;1769890;80;21385;-69
2021/05/01 09:19:39;;;;;;;5.87;3.05;;;;;;;32.31;28.17;100772.87;1769868;79;20927;-68
2021/05/01 09:22:10;;;;;;;3.33;2.65;;;;;;;32.18;28.47;100769.83;1769921;80;20943;-68
2021/05/01 09:24:39;;;;;;;3.58;3.27;;;;;;;32.12;29.12;100766.67;1769978;79;21057;-69
2021/05/01 09:27:07;;;;;;;2.70;2.47;;;;;;;32.13;28.85;100773.23;1769885;81;21452;-69
2021/05/01 09:29:38;;;;;;;3.12;2.83;;;;;;;32.21;28.51;100776.14;1770001;79;20923;-68
2021/05/01 09:32:22;;;;;;;3.08;2.50;;;;;;;32.27;28.24;100782.00;1769964;81;20935;-70
2021/05/01 09:34:52;;;;;;;4.58;2.98;;;;;;;32.21;27.77;100774.78;1769953;81;21026;-71
2021/05/01 09:37:22;;;;;;;4.08;2.83;;;;;;;32.09;28.71;100771.22;1769403;79;20998;-72
2021/05/01 09:39:56;;;;;;;2.72;2.52;;;;;;;32.00;28.31;100774.25;1769987;81;21296;-74
2021/05/01 09:42:24;;;;;;;6.40;2.98;;;;;;;31.95;28.87;100777.30;1769762;79;20962;-72
2021/05/01 09:45:18;;;;;;;3.02;2.83;;;;;;;31.93;28.58;100771.31;1769864;79;20939;-72
2021/05/01 09:47:51;;;;;;;2.45;2.20;;;;;;;31.92;27.97;100775.89;1769982;79;21317;-74
2021/05/01 09:50:26;;;;;;;3.20;2.60;;;;;;;31.94;28.91;100777.84;1770075;79;21539;-72
2021/05/01 09:53:10;;;;;;;2.50;2.30;;;;;;;32.01;29.80;100778.60;1770012;80;21342;-73
2021/05/01 09:55:46;;;;;;;3.12;2.40;;;;;;;32.16;29.00;100777.37;1769930;81;21010;-71
2021/05/01 09:58:26;;;;;;;3.72;2.50;;;;;;;32.36;28.69;100778.42;1770052;81;21349;-71
2021/05/01 10:01:15;;;;;;;3.87;2.65;;;;;;;32.36;28.54;100781.96;1769922;79;21069;-70
2021/05/01 10:03:43;;;;;;;2.67;2.45;;;;;;;32.36;28.58;100776.53;1769678;80;20934;-71
2021/05/01 10:06:15;;;;;;;2.75;2.20;;;;;;;32.55;28.50;100779.19;1770009;79;21192;-69
2021/05/01 10:08:45;;;;;;;9.15;3.30;;;;;;;32.73;28.09;100768.24;1770211;80;20939;-72
2021/05/01 10:11:13;;;;;;;8.43;3.55;;;;;;;32.88;28.24;100776.44;1749948;79;20939;-72
2021/05/01 10:13:53;;;;;;;4.55;2.60;;;;;;;32.75;28.45;100782.92;1771562;80;21084;-72
2021/05/01 10:16:23;;;;;;;3.27;2.98;;;;;;;32.68;27.96;100782.22;1778367;80;21022;-70
2021/05/01 10:19:10;;;;;;;4.83;3.50;;;;;;;32.66;28.57;100789.27;1778505;80;21358;-70
2021/05/01 10:21:41;;;;;;;8.18;3.12;;;;;;;32.67;28.75;100792.27;1778372;79;21476;-72
2021/05/01 10:24:10;;;;;;;2.65;1.80;;;;;;;32.63;28.20;100797.32;1778336;80;21001;-73
2021/05/01 10:26:47;;;;;;;2.90;2.12;;;;;;;32.65;28.10;100794.92;1778328;79;21033;-72
2021/05/01 10:29:35;;;;;;;5.92;2.58;;;;;;;32.76;28.01;100802.25;1778438;80;20986;-73
2021/05/01 10:32:18;;;;;;;2.30;2.00;;;;;;;32.85;28.18;100795.94;1778363;80;21107;-72
2021/05/01 10:34:48;;;;;;;4.20;2.17;;;;;;;32.95;27.92;100798.88;1778375;80;21690;-71
2021/05/01 10:37:16;;;;;;;4.78;2.00;;;;;;;32.76;27.75;100803.61;1778365;80;20942;-70
2021/05/01 10:39:45;;;;;;;6.55;2.60;;;;;;;32.62;27.98;100800.30;1778286;80;20903;-70
2021/05/01 10:42:15;;;;;;;4.55;2.77;;;;;;;32.51;27.96;100792.92;1778356;80;20927;-70
2021/05/01 10:44:59;;;;;;;3.12;2.77;;;;;;;32.50;27.75;100797.50;1778383;80;22113;-69
2021/05/01 10:47:27;;;;;;;7.17;2.70;;;;;;;32.48;27.36;100799.63;1778391;79;20970;-73
2021/05/01 10:49:58;;;;;;;4.97;2.25;;;;;;;32.47;27.91;100798.52;1775618;80;21002;-75
2021/05/01 10:52:28;;;;;;;2.67;1.98;;;;;;;32.53;27.83;100802.52;1777995;80;20992;-71
2021/05/01 10:55:01;;;;;;;3.42;2.60;;;;;;;32.38;27.59;100792.59;1778418;79;21503;-72
2021/05/01 10:57:30;;;;;;;2.55;1.98;;;;;;;32.33;27.53;100797.91;1778407;79;21355;-79
2021/05/01 11:00:09;;;;;;;2.83;1.80;;;;;;;32.35;27.18;100801.19;1778269;80;21049;-71
2021/05/01 11:02:40;;;;;;;4.95;2.10;;;;;;;32.38;27.44;100800.73;1775224;80;20970;-71
2021/05/01 11:05:13;;;;;;;4.05;1.95;;;;;;;32.42;26.99;100801.40;1778539;80;20959;-67
2021/05/01 11:07:55;;;;;;;2.20;1.80;;;;;;;32.33;27.15;100793.30;1778473;80;20990;-66
2021/05/01 11:10:23;;;;;;;2.10;1.93;;;;;;;32.27;27.04;100798.83;1778393;80;22146;-63
2021/05/01 11:12:54;;;;;;;1.50;1.40;;;;;;;32.16;27.57;100796.37;1778340;80;21014;-63
2021/05/01 11:15:25;;;;;;;3.08;1.77;;;;;;;32.13;27.83;100789.52;1778338;79;20934;-69
2021/05/01 11:18:07;;;;;;;2.50;2.00;;;;;;;32.11;26.79;100782.67;1778325;80;21003;-66
2021/05/01 11:20:36;;;;;;;1.82;1.40;;;;;;;32.08;26.80;100786.65;1778488;80;20930;-65
2021/05/01 11:23:05;;;;;;;6.47;2.67;;;;;;;32.05;27.60;100785.77;1778334;80;21201;-62
2021/05/01 11:25:35;;;;;;;2.42;1.87;;;;;;;31.94;27.90;100783.27;1778270;80;20955;-65
2021/05/01 11:29:23;;;;;;;3.17;1.98;;;;;;;31.69;27.12;100778.51;1816077;79;22593;-65
2021/05/01 11:31:52;;;;;;;3.80;3.33;;;;;;;31.47;27.14;100784.39;1789145;80;20951;-62
2021/05/01 11:34:21;;;;;;;7.17;2.65;;;;;;;31.26;27.68;100790.22;1759015;80;21199;-63